Terminal Aerodrome Forecast
Issued by NWS

Home | Current Version | Previous Version | Text Only | Print | Product List | Glossary On
Versions: 1 2 3 4 5 6 7 8 9 10 11 12 13 14 15 16 17 18 19 20
000
FTUS43 KIND 161300 AAA
TAFLAF
TAF AMD
KLAF 161301Z 1613/1712 01003KT 3SM BR BKN015
     FM161400 01005KT P6SM SCT015 BKN040
     FM170100 01003KT P6SM FEW040
     FM170900 00000KT 3SM BR SCT250=

USA.gov is the U.S. government's official web portal to all federal, state and local government web resources and services.